sensor_id;sensor_type;location;lat;lon;timestamp;P1;durP1;ratioP1;P2;durP2;ratioP2
20090;SDS011;10205;49.678;6.560;2023-03-23T00:02:02;1.00;;;0.90;;
20090;SDS011;10205;49.678;6.560;2023-03-23T00:04:29;2.65;;;1.00;;
20090;SDS011;10205;49.678;6.560;2023-03-23T00:07:00;0.82;;;0.82;;
20090;SDS011;10205;49.678;6.560;2023-03-23T00:09:28;1.52;;;1.00;;
20090;SDS011;10205;49.678;6.560;2023-03-23T00:11:59;1.90;;;0.90;;
20090;SDS011;10205;49.678;6.560;2023-03-23T00:14:30;0.75;;;0.75;;
20090;SDS011;10205;49.678;6.560;2023-03-23T00:17:06;2.55;;;1.20;;
20090;SDS011;10205;49.678;6.560;2023-03-23T00:19:36;0.80;;;0.80;;
20090;SDS011;10205;49.678;6.560;2023-03-23T00:22:12;1.20;;;0.93;;
20090;SDS011;10205;49.678;6.560;2023-03-23T00:24:46;1.35;;;1.00;;
20090;SDS011;10205;49.678;6.560;2023-03-23T00:27:15;0.73;;;0.73;;
20090;SDS011;10205;49.678;6.560;2023-03-23T00:29:43;1.05;;;0.85;;
20090;SDS011;10205;49.678;6.560;2023-03-23T00:32:11;0.95;;;0.90;;
20090;SDS011;10205;49.678;6.560;2023-03-23T00:34:39;1.10;;;1.00;;
20090;SDS011;10205;49.678;6.560;2023-03-23T00:37:08;1.13;;;0.85;;
20090;SDS011;10205;49.678;6.560;2023-03-23T00:39:37;1.00;;;0.90;;
20090;SDS011;10205;49.678;6.560;2023-03-23T00:42:11;0.93;;;0.90;;
20090;SDS011;10205;49.678;6.560;2023-03-23T00:44:40;1.77;;;1.10;;
20090;SDS011;10205;49.678;6.560;2023-03-23T00:47:08;1.33;;;1.20;;
20090;SDS011;10205;49.678;6.560;2023-03-23T00:49:37;1.48;;;1.00;;
20090;SDS011;10205;49.678;6.560;2023-03-23T00:52:06;1.00;;;0.90;;
20090;SDS011;10205;49.678;6.560;2023-03-23T00:54:34;2.28;;;1.00;;
20090;SDS011;10205;49.678;6.560;2023-03-23T00:57:04;0.80;;;0.80;;
20090;SDS011;10205;49.678;6.560;2023-03-23T00:59:31;1.23;;;1.00;;
20090;SDS011;10205;49.678;6.560;2023-03-23T01:01:58;1.33;;;0.85;;
20090;SDS011;10205;49.678;6.560;2023-03-23T01:04:25;2.08;;;1.10;;
20090;SDS011;10205;49.678;6.560;2023-03-23T01:06:56;1.98;;;0.90;;
20090;SDS011;10205;49.678;6.560;2023-03-23T01:09:25;1.10;;;1.00;;
20090;SDS011;10205;49.678;6.560;2023-03-23T01:11:52;1.42;;;1.23;;
20090;SDS011;10205;49.678;6.560;2023-03-23T01:14:22;1.02;;;0.95;;
20090;SDS011;10205;49.678;6.560;2023-03-23T01:16:50;1.10;;;1.00;;
20090;SDS011;10205;49.678;6.560;2023-03-23T01:19:18;1.02;;;0.98;;
20090;SDS011;10205;49.678;6.560;2023-03-23T01:21:45;1.23;;;0.90;;
20090;SDS011;10205;49.678;6.560;2023-03-23T01:24:12;1.20;;;1.00;;
20090;SDS011;10205;49.678;6.560;2023-03-23T01:26:39;1.60;;;1.25;;
20090;SDS011;10205;49.678;6.560;2023-03-23T01:29:06;1.88;;;1.20;;
20090;SDS011;10205;49.678;6.560;2023-03-23T01:31:35;1.27;;;1.10;;
20090;SDS011;10205;49.678;6.560;2023-03-23T01:34:02;1.23;;;1.13;;
20090;SDS011;10205;49.678;6.560;2023-03-23T01:36:29;1.77;;;0.90;;
20090;SDS011;10205;49.678;6.560;2023-03-23T01:38:57;2.97;;;1.00;;
20090;SDS011;10205;49.678;6.560;2023-03-23T01:41:27;1.05;;;0.90;;
20090;SDS011;10205;49.678;6.560;2023-03-23T01:43:55;1.00;;;0.90;;
20090;SDS011;10205;49.678;6.560;2023-03-23T01:46:26;1.30;;;1.20;;
20090;SDS011;10205;49.678;6.560;2023-03-23T01:48:57;0.82;;;0.82;;
20090;SDS011;10205;49.678;6.560;2023-03-23T01:51:33;1.88;;;1.10;;
20090;SDS011;10205;49.678;6.560;2023-03-23T01:54:07;1.00;;;0.90;;
20090;SDS011;10205;49.678;6.560;2023-03-23T01:56:39;1.20;;;1.00;;
20090;SDS011;10205;49.678;6.560;2023-03-23T01:59:11;1.17;;;1.08;;
20090;SDS011;10205;49.678;6.560;2023-03-23T02:01:40;1.20;;;0.95;;
20090;SDS011;10205;49.678;6.560;2023-03-23T02:04:12;1.17;;;1.05;;
20090;SDS011;10205;49.678;6.560;2023-03-23T02:06:42;1.20;;;1.02;;
20090;SDS011;10205;49.678;6.560;2023-03-23T02:09:10;1.10;;;1.00;;
20090;SDS011;10205;49.678;6.560;2023-03-23T02:11:42;1.42;;;1.33;;
20090;SDS011;10205;49.678;6.560;2023-03-23T02:14:10;1.40;;;1.30;;
20090;SDS011;10205;49.678;6.560;2023-03-23T02:16:40;4.55;;;1.52;;
20090;SDS011;10205;49.678;6.560;2023-03-23T02:19:21;2.97;;;1.40;;
20090;SDS011;10205;49.678;6.560;2023-03-23T02:22:18;2.80;;;1.60;;
20090;SDS011;10205;49.678;6.560;2023-03-23T02:25:29;1.40;;;1.10;;
20090;SDS011;10205;49.678;6.560;2023-03-23T02:28:24;1.40;;;1.30;;
20090;SDS011;10205;49.678;6.560;2023-03-23T02:31:30;1.80;;;1.35;;
20090;SDS011;10205;49.678;6.560;2023-03-23T02:34:21;1.40;;;1.13;;
20090;SDS011;10205;49.678;6.560;2023-03-23T02:36:56;1.95;;;1.40;;
20090;SDS011;10205;49.678;6.560;2023-03-23T02:39:29;2.10;;;1.42;;
20090;SDS011;10205;49.678;6.560;2023-03-23T02:42:02;1.67;;;1.40;;
20090;SDS011;10205;49.678;6.560;2023-03-23T02:44:33;3.25;;;1.40;;
20090;SDS011;10205;49.678;6.560;2023-03-23T02:47:07;1.27;;;1.15;;
20090;SDS011;10205;49.678;6.560;2023-03-23T02:49:42;1.30;;;1.20;;
20090;SDS011;10205;49.678;6.560;2023-03-23T02:52:16;1.30;;;1.10;;
20090;SDS011;10205;49.678;6.560;2023-03-23T02:54:49;1.35;;;1.25;;
20090;SDS011;10205;49.678;6.560;2023-03-23T02:57:18;1.50;;;1.40;;
20090;SDS011;10205;49.678;6.560;2023-03-23T02:59:48;2.65;;;1.23;;
20090;SDS011;10205;49.678;6.560;2023-03-23T03:02:15;1.50;;;1.40;;
20090;SDS011;10205;49.678;6.560;2023-03-23T03:04:47;2.00;;;1.33;;
20090;SDS011;10205;49.678;6.560;2023-03-23T03:07:33;1.42;;;1.33;;
20090;SDS011;10205;49.678;6.560;2023-03-23T03:10:15;3.55;;;1.48;;
20090;SDS011;10205;49.678;6.560;2023-03-23T03:12:52;1.55;;;1.13;;
20090;SDS011;10205;49.678;6.560;2023-03-23T03:15:29;1.42;;;1.33;;
20090;SDS011;10205;49.678;6.560;2023-03-23T03:18:05;2.53;;;1.58;;
20090;SDS011;10205;49.678;6.560;2023-03-23T03:20:43;1.65;;;1.55;;
20090;SDS011;10205;49.678;6.560;2023-03-23T03:23:15;1.50;;;1.38;;
20090;SDS011;10205;49.678;6.560;2023-03-23T03:25:44;1.20;;;1.10;;
20090;SDS011;10205;49.678;6.560;2023-03-23T03:28:15;1.73;;;1.48;;
20090;SDS011;10205;49.678;6.560;2023-03-23T03:30:46;1.73;;;1.45;;
20090;SDS011;10205;49.678;6.560;2023-03-23T03:33:19;1.42;;;1.33;;
20090;SDS011;10205;49.678;6.560;2023-03-23T03:35:51;1.58;;;1.48;;
20090;SDS011;10205;49.678;6.560;2023-03-23T03:38:21;1.73;;;1.27;;
20090;SDS011;10205;49.678;6.560;2023-03-23T03:40:49;1.60;;;1.15;;
20090;SDS011;10205;49.678;6.560;2023-03-23T03:43:16;2.03;;;1.48;;
20090;SDS011;10205;49.678;6.560;2023-03-23T03:45:44;1.70;;;1.55;;
20090;SDS011;10205;49.678;6.560;2023-03-23T03:48:11;2.30;;;1.60;;
20090;SDS011;10205;49.678;6.560;2023-03-23T03:50:38;1.70;;;1.60;;
20090;SDS011;10205;49.678;6.560;2023-03-23T03:53:07;2.05;;;1.50;;
20090;SDS011;10205;49.678;6.560;2023-03-23T03:55:34;1.67;;;1.58;;
20090;SDS011;10205;49.678;6.560;2023-03-23T03:58:04;1.40;;;1.30;;
20090;SDS011;10205;49.678;6.560;2023-03-23T04:00:32;1.50;;;1.35;;
20090;SDS011;10205;49.678;6.560;2023-03-23T04:02:59;1.98;;;1.60;;
20090;SDS011;10205;49.678;6.560;2023-03-23T04:05:26;2.17;;;1.52;;
20090;SDS011;10205;49.678;6.560;2023-03-23T04:07:54;1.73;;;1.45;;
20090;SDS011;10205;49.678;6.560;2023-03-23T04:10:28;1.58;;;1.42;;
20090;SDS011;10205;49.678;6.560;2023-03-23T04:12:56;1.58;;;1.35;;
20090;SDS011;10205;49.678;6.560;2023-03-23T04:15:24;1.73;;;1.45;;
20090;SDS011;10205;49.678;6.560;2023-03-23T04:17:52;2.38;;;1.40;;
20090;SDS011;10205;49.678;6.560;2023-03-23T04:20:21;2.28;;;1.55;;
20090;SDS011;10205;49.678;6.560;2023-03-23T04:22:50;1.30;;;1.20;;
20090;SDS011;10205;49.678;6.560;2023-03-23T04:25:20;2.03;;;1.60;;
20090;SDS011;10205;49.678;6.560;2023-03-23T04:27:49;1.85;;;1.75;;
20090;SDS011;10205;49.678;6.560;2023-03-23T04:30:18;1.33;;;1.23;;
20090;SDS011;10205;49.678;6.560;2023-03-23T04:32:48;1.80;;;1.70;;
20090;SDS011;10205;49.678;6.560;2023-03-23T04:35:20;1.50;;;1.40;;
20090;SDS011;10205;49.678;6.560;2023-03-23T04:37:51;1.98;;;1.40;;
20090;SDS011;10205;49.678;6.560;2023-03-23T04:40:18;1.42;;;1.33;;
20090;SDS011;10205;49.678;6.560;2023-03-23T04:42:47;1.42;;;1.30;;
20090;SDS011;10205;49.678;6.560;2023-03-23T04:45:18;1.70;;;1.60;;
20090;SDS011;10205;49.678;6.560;2023-03-23T04:47:47;1.60;;;1.50;;
20090;SDS011;10205;49.678;6.560;2023-03-23T04:50:19;1.50;;;1.40;;
20090;SDS011;10205;49.678;6.560;2023-03-23T04:52:49;1.60;;;1.40;;
20090;SDS011;10205;49.678;6.560;2023-03-23T04:55:19;1.90;;;1.50;;
20090;SDS011;10205;49.678;6.560;2023-03-23T04:57:49;1.73;;;1.50;;
20090;SDS011;10205;49.678;6.560;2023-03-23T05:00:17;1.67;;;1.55;;
20090;SDS011;10205;49.678;6.560;2023-03-23T05:02:46;3.33;;;1.77;;
20090;SDS011;10205;49.678;6.560;2023-03-23T05:05:16;1.65;;;1.50;;
20090;SDS011;10205;49.678;6.560;2023-03-23T05:07:46;1.60;;;1.50;;
20090;SDS011;10205;49.678;6.560;2023-03-23T05:10:14;1.38;;;1.27;;
20090;SDS011;10205;49.678;6.560;2023-03-23T05:12:42;2.25;;;1.60;;
20090;SDS011;10205;49.678;6.560;2023-03-23T05:15:12;1.67;;;1.52;;
20090;SDS011;10205;49.678;6.560;2023-03-23T05:17:42;2.65;;;1.42;;
20090;SDS011;10205;49.678;6.560;2023-03-23T05:20:10;1.75;;;1.50;;
20090;SDS011;10205;49.678;6.560;2023-03-23T05:22:39;3.35;;;1.55;;
20090;SDS011;10205;49.678;6.560;2023-03-23T05:25:09;1.90;;;1.45;;
20090;SDS011;10205;49.678;6.560;2023-03-23T05:27:37;2.53;;;1.55;;
20090;SDS011;10205;49.678;6.560;2023-03-23T05:30:07;1.67;;;1.58;;
20090;SDS011;10205;49.678;6.560;2023-03-23T05:32:38;2.38;;;1.40;;
20090;SDS011;10205;49.678;6.560;2023-03-23T05:35:05;2.20;;;1.45;;
20090;SDS011;10205;49.678;6.560;2023-03-23T05:37:32;1.77;;;1.60;;
20090;SDS011;10205;49.678;6.560;2023-03-23T05:40:00;2.55;;;1.50;;
20090;SDS011;10205;49.678;6.560;2023-03-23T05:42:30;2.45;;;1.58;;
20090;SDS011;10205;49.678;6.560;2023-03-23T05:44:59;1.85;;;1.50;;
20090;SDS011;10205;49.678;6.560;2023-03-23T05:47:26;1.90;;;1.58;;
20090;SDS011;10205;49.678;6.560;2023-03-23T05:49:55;1.85;;;1.55;;
20090;SDS011;10205;49.678;6.560;2023-03-23T05:52:22;2.75;;;1.58;;
20090;SDS011;10205;49.678;6.560;2023-03-23T05:54:51;1.98;;;1.83;;
20090;SDS011;10205;49.678;6.560;2023-03-23T05:57:19;2.10;;;1.85;;
20090;SDS011;10205;49.678;6.560;2023-03-23T05:59:48;1.98;;;1.65;;
20090;SDS011;10205;49.678;6.560;2023-03-23T06:02:15;2.72;;;2.17;;
20090;SDS011;10205;49.678;6.560;2023-03-23T06:04:42;1.70;;;1.60;;
20090;SDS011;10205;49.678;6.560;2023-03-23T06:07:11;2.40;;;1.65;;
20090;SDS011;10205;49.678;6.560;2023-03-23T06:09:39;2.65;;;1.95;;
20090;SDS011;10205;49.678;6.560;2023-03-23T06:12:07;1.98;;;1.77;;
20090;SDS011;10205;49.678;6.560;2023-03-23T06:14:36;1.88;;;1.63;;
20090;SDS011;10205;49.678;6.560;2023-03-23T06:17:04;1.67;;;1.50;;
20090;SDS011;10205;49.678;6.560;2023-03-23T06:19:33;1.67;;;1.48;;
20090;SDS011;10205;49.678;6.560;2023-03-23T06:22:00;1.98;;;1.88;;
20090;SDS011;10205;49.678;6.560;2023-03-23T06:24:28;1.88;;;1.77;;
20090;SDS011;10205;49.678;6.560;2023-03-23T06:26:55;2.13;;;1.77;;
20090;SDS011;10205;49.678;6.560;2023-03-23T06:29:24;2.10;;;1.58;;
20090;SDS011;10205;49.678;6.560;2023-03-23T06:31:52;1.73;;;1.63;;
20090;SDS011;10205;49.678;6.560;2023-03-23T06:34:23;1.70;;;1.50;;
20090;SDS011;10205;49.678;6.560;2023-03-23T06:36:51;1.88;;;1.58;;
20090;SDS011;10205;49.678;6.560;2023-03-23T06:39:18;1.85;;;1.58;;
20090;SDS011;10205;49.678;6.560;2023-03-23T06:41:48;2.35;;;1.48;;
20090;SDS011;10205;49.678;6.560;2023-03-23T06:44:15;2.30;;;1.58;;
20090;SDS011;10205;49.678;6.560;2023-03-23T06:46:42;2.03;;;1.45;;
20090;SDS011;10205;49.678;6.560;2023-03-23T06:49:09;1.42;;;1.33;;
20090;SDS011;10205;49.678;6.560;2023-03-23T06:51:37;1.42;;;1.33;;
20090;SDS011;10205;49.678;6.560;2023-03-23T06:54:04;1.83;;;1.42;;
20090;SDS011;10205;49.678;6.560;2023-03-23T06:56:31;2.33;;;1.50;;
20090;SDS011;10205;49.678;6.560;2023-03-23T06:59:00;2.97;;;1.88;;
20090;SDS011;10205;49.678;6.560;2023-03-23T07:01:28;1.35;;;1.20;;
20090;SDS011;10205;49.678;6.560;2023-03-23T07:03:55;3.10;;;1.58;;
20090;SDS011;10205;49.678;6.560;2023-03-23T07:06:23;1.45;;;1.35;;
20090;SDS011;10205;49.678;6.560;2023-03-23T07:08:51;1.92;;;1.58;;
20090;SDS011;10205;49.678;6.560;2023-03-23T07:11:18;1.45;;;1.35;;
20090;SDS011;10205;49.678;6.560;2023-03-23T07:13:45;1.45;;;1.35;;
20090;SDS011;10205;49.678;6.560;2023-03-23T07:16:13;2.50;;;1.30;;
20090;SDS011;10205;49.678;6.560;2023-03-23T07:18:41;1.60;;;1.50;;
20090;SDS011;10205;49.678;6.560;2023-03-23T07:21:08;1.42;;;1.33;;
20090;SDS011;10205;49.678;6.560;2023-03-23T07:23:36;1.88;;;1.35;;
20090;SDS011;10205;49.678;6.560;2023-03-23T07:26:03;3.13;;;1.23;;
20090;SDS011;10205;49.678;6.560;2023-03-23T07:28:31;1.75;;;1.35;;
20090;SDS011;10205;49.678;6.560;2023-03-23T07:30:58;1.60;;;1.50;;
20090;SDS011;10205;49.678;6.560;2023-03-23T07:33:27;1.67;;;1.25;;
20090;SDS011;10205;49.678;6.560;2023-03-23T07:35:54;1.90;;;1.25;;
20090;SDS011;10205;49.678;6.560;2023-03-23T07:38:24;1.58;;;1.40;;
20090;SDS011;10205;49.678;6.560;2023-03-23T07:40:52;1.65;;;1.50;;
20090;SDS011;10205;49.678;6.560;2023-03-23T07:43:19;1.10;;;1.00;;
20090;SDS011;10205;49.678;6.560;2023-03-23T07:45:47;1.27;;;1.15;;
20090;SDS011;10205;49.678;6.560;2023-03-23T07:48:14;2.25;;;1.33;;
20090;SDS011;10205;49.678;6.560;2023-03-23T07:50:43;1.38;;;1.27;;
20090;SDS011;10205;49.678;6.560;2023-03-23T07:53:11;4.85;;;1.75;;
20090;SDS011;10205;49.678;6.560;2023-03-23T07:55:38;1.92;;;1.70;;
20090;SDS011;10205;49.678;6.560;2023-03-23T07:58:05;1.40;;;1.30;;
20090;SDS011;10205;49.678;6.560;2023-03-23T08:00:33;1.58;;;1.48;;
20090;SDS011;10205;49.678;6.560;2023-03-23T08:03:01;2.17;;;1.20;;
20090;SDS011;10205;49.678;6.560;2023-03-23T08:05:32;1.95;;;1.33;;
20090;SDS011;10205;49.678;6.560;2023-03-23T08:08:01;3.38;;;1.50;;
20090;SDS011;10205;49.678;6.560;2023-03-23T08:10:28;1.58;;;1.23;;
20090;SDS011;10205;49.678;6.560;2023-03-23T08:12:56;1.77;;;1.02;;
20090;SDS011;10205;49.678;6.560;2023-03-23T08:15:24;1.27;;;1.17;;
20090;SDS011;10205;49.678;6.560;2023-03-23T08:17:52;1.27;;;1.10;;
20090;SDS011;10205;49.678;6.560;2023-03-23T08:20:19;1.15;;;1.00;;
20090;SDS011;10205;49.678;6.560;2023-03-23T08:22:51;1.40;;;1.30;;
20090;SDS011;10205;49.678;6.560;2023-03-23T08:25:22;1.25;;;1.10;;
20090;SDS011;10205;49.678;6.560;2023-03-23T08:27:51;1.60;;;1.45;;
20090;SDS011;10205;49.678;6.560;2023-03-23T08:30:19;1.33;;;1.13;;
20090;SDS011;10205;49.678;6.560;2023-03-23T08:32:47;1.65;;;1.25;;
20090;SDS011;10205;49.678;6.560;2023-03-23T08:35:15;1.77;;;1.30;;
20090;SDS011;10205;49.678;6.560;2023-03-23T08:37:44;1.65;;;1.33;;
20090;SDS011;10205;49.678;6.560;2023-03-23T08:40:16;1.80;;;0.90;;
20090;SDS011;10205;49.678;6.560;2023-03-23T08:42:48;2.17;;;1.20;;
20090;SDS011;10205;49.678;6.560;2023-03-23T08:45:19;2.25;;;1.40;;
20090;SDS011;10205;49.678;6.560;2023-03-23T08:47:49;1.88;;;1.10;;
20090;SDS011;10205;49.678;6.560;2023-03-23T08:50:21;1.30;;;1.20;;
20090;SDS011;10205;49.678;6.560;2023-03-23T08:52:51;1.65;;;1.38;;
20090;SDS011;10205;49.678;6.560;2023-03-23T08:55:19;1.15;;;1.13;;
20090;SDS011;10205;49.678;6.560;2023-03-23T08:57:49;1.70;;;1.13;;
20090;SDS011;10205;49.678;6.560;2023-03-23T09:00:18;1.42;;;1.13;;
20090;SDS011;10205;49.678;6.560;2023-03-23T09:02:49;2.35;;;1.20;;
20090;SDS011;10205;49.678;6.560;2023-03-23T09:05:21;1.40;;;1.30;;
20090;SDS011;10205;49.678;6.560;2023-03-23T09:07:52;1.52;;;1.20;;
20090;SDS011;10205;49.678;6.560;2023-03-23T09:10:24;2.53;;;1.05;;
20090;SDS011;10205;49.678;6.560;2023-03-23T09:12:54;1.33;;;1.00;;
20090;SDS011;10205;49.678;6.560;2023-03-23T09:15:22;1.17;;;1.08;;
20090;SDS011;10205;49.678;6.560;2023-03-23T09:17:50;1.70;;;1.20;;
20090;SDS011;10205;49.678;6.560;2023-03-23T09:20:21;1.65;;;1.10;;
20090;SDS011;10205;49.678;6.560;2023-03-23T09:22:51;2.35;;;1.10;;
20090;SDS011;10205;49.678;6.560;2023-03-23T09:25:22;1.65;;;1.30;;
20090;SDS011;10205;49.678;6.560;2023-03-23T09:27:52;2.35;;;1.20;;
20090;SDS011;10205;49.678;6.560;2023-03-23T09:30:23;1.23;;;1.05;;
20090;SDS011;10205;49.678;6.560;2023-03-23T09:32:52;1.83;;;1.40;;
20090;SDS011;10205;49.678;6.560;2023-03-23T09:35:19;1.67;;;1.08;;
20090;SDS011;10205;49.678;6.560;2023-03-23T09:37:48;1.90;;;1.60;;
20090;SDS011;10205;49.678;6.560;2023-03-23T09:40:17;1.10;;;1.00;;
20090;SDS011;10205;49.678;6.560;2023-03-23T09:45:55;1.80;;;1.20;;
20090;SDS011;10205;49.678;6.560;2023-03-23T09:48:43;2.75;;;1.45;;
20090;SDS011;10205;49.678;6.560;2023-03-23T09:51:21;1.38;;;1.23;;
20090;SDS011;10205;49.678;6.560;2023-03-23T09:54:09;1.23;;;1.08;;
20090;SDS011;10205;49.678;6.560;2023-03-23T09:56:45;1.27;;;1.10;;
20090;SDS011;10205;49.678;6.560;2023-03-23T09:59:16;1.25;;;1.08;;
20090;SDS011;10205;49.678;6.560;2023-03-23T10:01:50;0.80;;;0.80;;
20090;SDS011;10205;49.678;6.560;2023-03-23T10:04:31;1.15;;;0.82;;
20090;SDS011;10205;49.678;6.560;2023-03-23T10:07:08;0.98;;;0.88;;
20090;SDS011;10205;49.678;6.560;2023-03-23T10:09:39;3.33;;;1.08;;
20090;SDS011;10205;49.678;6.560;2023-03-23T10:12:10;0.93;;;0.85;;
20090;SDS011;10205;49.678;6.560;2023-03-23T10:14:55;0.80;;;0.80;;
20090;SDS011;10205;49.678;6.560;2023-03-23T10:17:39;0.88;;;0.75;;
20090;SDS011;10205;49.678;6.560;2023-03-23T10:20:24;0.80;;;0.80;;
20090;SDS011;10205;49.678;6.560;2023-03-23T10:23:13;1.10;;;0.82;;
20090;SDS011;10205;49.678;6.560;2023-03-23T10:26:04;1.00;;;0.70;;
20090;SDS011;10205;49.678;6.560;2023-03-23T10:28:39;0.95;;;0.85;;
20090;SDS011;10205;49.678;6.560;2023-03-23T10:31:11;1.63;;;0.98;;
20090;SDS011;10205;49.678;6.560;2023-03-23T10:33:43;1.23;;;1.00;;
20090;SDS011;10205;49.678;6.560;2023-03-23T10:36:14;1.25;;;0.80;;
20090;SDS011;10205;49.678;6.560;2023-03-23T10:38:49;0.95;;;0.80;;
20090;SDS011;10205;49.678;6.560;2023-03-23T10:41:24;1.33;;;0.98;;
20090;SDS011;10205;49.678;6.560;2023-03-23T10:43:51;1.05;;;0.85;;
20090;SDS011;10205;49.678;6.560;2023-03-23T10:46:27;3.13;;;1.10;;
20090;SDS011;10205;49.678;6.560;2023-03-23T10:49:06;1.15;;;1.00;;
20090;SDS011;10205;49.678;6.560;2023-03-23T10:51:40;0.75;;;0.75;;
20090;SDS011;10205;49.678;6.560;2023-03-23T10:54:24;1.30;;;0.88;;
20090;SDS011;10205;49.678;6.560;2023-03-23T10:56:53;1.58;;;0.95;;
20090;SDS011;10205;49.678;6.560;2023-03-23T10:59:21;2.33;;;1.20;;
20090;SDS011;10205;49.678;6.560;2023-03-23T11:01:56;2.03;;;0.90;;
20090;SDS011;10205;49.678;6.560;2023-03-23T11:04:29;0.88;;;0.60;;
20090;SDS011;10205;49.678;6.560;2023-03-23T11:07:00;1.95;;;1.02;;
20090;SDS011;10205;49.678;6.560;2023-03-23T11:09:35;1.20;;;0.85;;
20090;SDS011;10205;49.678;6.560;2023-03-23T11:12:04;1.98;;;0.90;;
20090;SDS011;10205;49.678;6.560;2023-03-23T11:14:43;1.45;;;1.02;;
20090;SDS011;10205;49.678;6.560;2023-03-23T11:17:20;1.20;;;1.08;;
20090;SDS011;10205;49.678;6.560;2023-03-23T11:19:50;1.33;;;1.05;;
20090;SDS011;10205;49.678;6.560;2023-03-23T11:22:20;1.00;;;0.90;;
20090;SDS011;10205;49.678;6.560;2023-03-23T11:24:54;1.48;;;1.15;;
20090;SDS011;10205;49.678;6.560;2023-03-23T11:27:26;1.63;;;0.93;;
20090;SDS011;10205;49.678;6.560;2023-03-23T11:29:56;1.13;;;1.00;;
20090;SDS011;10205;49.678;6.560;2023-03-23T11:32:35;2.53;;;0.82;;
20090;SDS011;10205;49.678;6.560;2023-03-23T11:35:04;1.60;;;1.10;;
20090;SDS011;10205;49.678;6.560;2023-03-23T11:37:43;3.75;;;0.90;;
20090;SDS011;10205;49.678;6.560;2023-03-23T11:40:15;0.88;;;0.85;;
20090;SDS011;10205;49.678;6.560;2023-03-23T11:42:46;1.75;;;1.00;;
20090;SDS011;10205;49.678;6.560;2023-03-23T11:45:17;2.13;;;1.00;;
20090;SDS011;10205;49.678;6.560;2023-03-23T11:47:54;1.45;;;1.00;;
20090;SDS011;10205;49.678;6.560;2023-03-23T11:50:31;1.58;;;1.00;;
20090;SDS011;10205;49.678;6.560;2023-03-23T11:53:08;2.70;;;1.33;;
20090;SDS011;10205;49.678;6.560;2023-03-23T11:55:50;1.95;;;0.90;;
20090;SDS011;10205;49.678;6.560;2023-03-23T11:58:35;2.13;;;1.20;;
20090;SDS011;10205;49.678;6.560;2023-03-23T12:01:04;1.20;;;0.90;;
20090;SDS011;10205;49.678;6.560;2023-03-23T12:03:54;1.20;;;1.10;;
20090;SDS011;10205;49.678;6.560;2023-03-23T12:06:58;1.45;;;1.02;;
20090;SDS011;10205;49.678;6.560;2023-03-23T12:09:43;0.90;;;0.90;;
20090;SDS011;10205;49.678;6.560;2023-03-23T12:12:18;1.63;;;1.10;;
20090;SDS011;10205;49.678;6.560;2023-03-23T12:14:59;1.10;;;0.98;;
20090;SDS011;10205;49.678;6.560;2023-03-23T12:17:44;2.28;;;1.10;;
20090;SDS011;10205;49.678;6.560;2023-03-23T12:20:29;0.82;;;0.82;;
20090;SDS011;10205;49.678;6.560;2023-03-23T12:23:14;2.78;;;1.20;;
20090;SDS011;10205;49.678;6.560;2023-03-23T12:28:53;1.58;;;1.20;;
20090;SDS011;10205;49.678;6.560;2023-03-23T12:31:47;1.45;;;1.00;;
20090;SDS011;10205;49.678;6.560;2023-03-23T12:34:30;1.20;;;1.00;;
20090;SDS011;10205;49.678;6.560;2023-03-23T12:37:13;1.52;;;1.00;;
20090;SDS011;10205;49.678;6.560;2023-03-23T12:40:00;8.30;;;1.10;;
20090;SDS011;10205;49.678;6.560;2023-03-23T12:43:02;1.25;;;1.10;;
20090;SDS011;10205;49.678;6.560;2023-03-23T12:45:45;1.00;;;0.95;;
20090;SDS011;10205;49.678;6.560;2023-03-23T12:48:25;1.20;;;1.10;;
20090;SDS011;10205;49.678;6.560;2023-03-23T12:51:09;2.53;;;1.25;;
20090;SDS011;10205;49.678;6.560;2023-03-23T12:53:46;3.05;;;1.23;;
20090;SDS011;10205;49.678;6.560;2023-03-23T12:56:23;1.63;;;1.15;;
20090;SDS011;10205;49.678;6.560;2023-03-23T12:58:59;2.42;;;1.02;;
20090;SDS011;10205;49.678;6.560;2023-03-23T13:01:37;1.85;;;1.08;;
20090;SDS011;10205;49.678;6.560;2023-03-23T13:04:10;3.03;;;1.20;;
20090;SDS011;10205;49.678;6.560;2023-03-23T13:06:44;1.33;;;1.20;;
20090;SDS011;10205;49.678;6.560;2023-03-23T13:09:15;2.25;;;1.10;;
20090;SDS011;10205;49.678;6.560;2023-03-23T13:11:53;2.90;;;1.30;;
20090;SDS011;10205;49.678;6.560;2023-03-23T13:14:28;1.80;;;1.05;;
20090;SDS011;10205;49.678;6.560;2023-03-23T13:17:10;1.58;;;1.10;;
20090;SDS011;10205;49.678;6.560;2023-03-23T13:20:05;2.25;;;1.25;;
20090;SDS011;10205;49.678;6.560;2023-03-23T13:22:58;1.40;;;1.30;;
20090;SDS011;10205;49.678;6.560;2023-03-23T13:25:42;1.60;;;1.15;;
20090;SDS011;10205;49.678;6.560;2023-03-23T13:28:22;1.95;;;1.10;;
20090;SDS011;10205;49.678;6.560;2023-03-23T13:30:54;1.80;;;1.10;;
20090;SDS011;10205;49.678;6.560;2023-03-23T13:33:32;2.28;;;1.17;;
20090;SDS011;10205;49.678;6.560;2023-03-23T13:36:02;1.92;;;1.30;;
20090;SDS011;10205;49.678;6.560;2023-03-23T13:38:35;2.25;;;1.05;;
20090;SDS011;10205;49.678;6.560;2023-03-23T13:41:10;1.85;;;1.35;;
20090;SDS011;10205;49.678;6.560;2023-03-23T13:43:41;1.67;;;1.02;;
20090;SDS011;10205;49.678;6.560;2023-03-23T13:46:23;6.30;;;1.45;;
20090;SDS011;10205;49.678;6.560;2023-03-23T13:51:51;1.73;;;1.02;;
20090;SDS011;10205;49.678;6.560;2023-03-23T13:54:30;1.52;;;1.00;;
20090;SDS011;10205;49.678;6.560;2023-03-23T13:57:20;1.95;;;1.05;;
20090;SDS011;10205;49.678;6.560;2023-03-23T14:00:12;2.03;;;1.15;;
20090;SDS011;10205;49.678;6.560;2023-03-23T14:03:02;1.75;;;1.00;;
20090;SDS011;10205;49.678;6.560;2023-03-23T14:05:39;5.43;;;1.40;;
20090;SDS011;10205;49.678;6.560;2023-03-23T14:08:13;1.50;;;1.27;;
20090;SDS011;10205;49.678;6.560;2023-03-23T14:10:50;1.52;;;1.13;;
20090;SDS011;10205;49.678;6.560;2023-03-23T14:13:25;2.17;;;0.90;;
20090;SDS011;10205;49.678;6.560;2023-03-23T14:15:59;1.83;;;0.98;;
20090;SDS011;10205;49.678;6.560;2023-03-23T14:18:34;1.88;;;0.93;;
20090;SDS011;10205;49.678;6.560;2023-03-23T14:21:04;5.00;;;1.23;;
20090;SDS011;10205;49.678;6.560;2023-03-23T14:23:40;4.53;;;1.20;;
20090;SDS011;10205;49.678;6.560;2023-03-23T14:26:10;1.73;;;1.40;;
20090;SDS011;10205;49.678;6.560;2023-03-23T14:28:43;3.50;;;1.08;;
20090;SDS011;10205;49.678;6.560;2023-03-23T14:31:16;2.53;;;1.35;;
20090;SDS011;10205;49.678;6.560;2023-03-23T14:33:48;2.15;;;1.10;;
20090;SDS011;10205;49.678;6.560;2023-03-23T14:36:19;1.95;;;1.10;;
20090;SDS011;10205;49.678;6.560;2023-03-23T14:38:49;2.65;;;1.10;;
20090;SDS011;10205;49.678;6.560;2023-03-23T14:41:28;2.45;;;1.40;;
20090;SDS011;10205;49.678;6.560;2023-03-23T14:44:00;2.65;;;1.27;;
20090;SDS011;10205;49.678;6.560;2023-03-23T14:46:29;2.03;;;1.30;;
20090;SDS011;10205;49.678;6.560;2023-03-23T14:48:59;2.42;;;1.25;;
20090;SDS011;10205;49.678;6.560;2023-03-23T14:51:28;3.63;;;1.17;;
20090;SDS011;10205;49.678;6.560;2023-03-23T14:53:55;3.80;;;1.00;;
20090;SDS011;10205;49.678;6.560;2023-03-23T14:56:31;1.00;;;0.90;;
20090;SDS011;10205;49.678;6.560;2023-03-23T14:59:05;2.88;;;1.40;;
20090;SDS011;10205;49.678;6.560;2023-03-23T15:01:35;4.65;;;1.30;;
20090;SDS011;10205;49.678;6.560;2023-03-23T15:04:05;1.67;;;1.20;;
20090;SDS011;10205;49.678;6.560;2023-03-23T15:06:39;1.70;;;1.20;;
20090;SDS011;10205;49.678;6.560;2023-03-23T15:09:10;4.32;;;1.40;;
20090;SDS011;10205;49.678;6.560;2023-03-23T15:11:41;1.23;;;0.90;;
20090;SDS011;10205;49.678;6.560;2023-03-23T15:14:13;6.15;;;1.30;;
20090;SDS011;10205;49.678;6.560;2023-03-23T15:16:46;1.95;;;1.08;;
20090;SDS011;10205;49.678;6.560;2023-03-23T15:19:16;1.90;;;1.13;;
20090;SDS011;10205;49.678;6.560;2023-03-23T15:21:48;1.73;;;1.30;;
20090;SDS011;10205;49.678;6.560;2023-03-23T15:24:20;2.30;;;1.08;;
20090;SDS011;10205;49.678;6.560;2023-03-23T15:26:53;1.85;;;1.27;;
20090;SDS011;10205;49.678;6.560;2023-03-23T15:29:45;2.47;;;1.10;;